Time;durP1;ratioP1;P1;durP2;ratioP2;P2;SDS_P1;SDS_P2;PMS_P1;PMS_P2;Temp;Humidity;BMP_temperature;BMP_pressure;BME280_temperature;BME280_humidity;BME280_pressure;Samples;Min_cycle;Max_cycle;Signal;HPM_P1;HPM_P2
2021/07/03 00:00:30;;;;;;;;;;;;;;;20.96;45.42;95858.00;1036794;28;1001;-76
2021/07/03 00:01:00;;;;;;;;;;;;;;;20.96;45.28;95852.72;1037754;28;2051;-75
2021/07/03 00:01:30;;;;;;;;;;;;;;;20.97;45.37;95860.38;1040470;28;1775;-76
2021/07/03 00:02:01;;;;;;;;;;;;;;;20.97;45.37;95856.94;1040719;28;1182;-75
2021/07/03 00:02:31;;;;;;;;;;;;;;;20.95;45.38;95857.22;1039940;28;2084;-76
2021/07/03 00:03:01;;;;;;;;;;;;;;;20.94;45.32;95853.00;1039039;28;1902;-75
2021/07/03 00:03:32;;;;;;;;;;;;;;;20.91;45.58;95850.94;1035967;28;2642;-76
2021/07/03 00:04:02;;;;;;;;;;;;;;;20.91;45.51;95860.69;1039483;28;1247;-76
2021/07/03 00:04:32;;;;;;;;;;;;;;;20.90;45.53;95854.59;1040298;28;836;-76
2021/07/03 00:05:03;;;;;;;;;;;;;;;20.91;45.49;95850.94;1037697;28;1225;-75
2021/07/03 00:05:34;;;;;;;;;;;;;;;20.90;45.72;95851.97;1039663;28;1178;-75
2021/07/03 00:06:04;;;;;;;;;;;;;;;20.91;45.61;95855.41;1039842;28;2108;-76
2021/07/03 00:06:34;;;;;;;;;;;;;;;20.90;45.59;95854.59;1028583;28;1710;-76
2021/07/03 00:07:05;;;;;;;;;;;;;;;20.90;45.54;95859.09;1029747;28;1157;-75
2021/07/03 00:07:35;;;;;;;;;;;;;;;20.90;45.72;95854.59;1028338;28;1070;-76
2021/07/03 00:08:05;;;;;;;;;;;;;;;20.89;45.55;95853.06;1028091;28;1161;-74
2021/07/03 00:08:36;;;;;;;;;;;;;;;20.90;45.63;95849.34;1037473;28;1211;-76
2021/07/03 00:09:06;;;;;;;;;;;;;;;20.92;45.67;95857.75;1040003;28;1328;-76
2021/07/03 00:09:37;;;;;;;;;;;;;;;20.92;45.72;95856.97;1037715;28;1840;-76
2021/07/03 00:10:07;;;;;;;;;;;;;;;20.92;45.52;95855.13;1040179;28;1159;-76
2021/07/03 00:10:38;;;;;;;;;;;;;;;20.91;45.54;95853.56;1032471;28;995;-75
2021/07/03 00:11:08;;;;;;;;;;;;;;;20.91;45.79;95850.13;1037494;28;2218;-75
2021/07/03 00:11:38;;;;;;;;;;;;;;;20.91;45.72;95855.41;1036329;28;1016;-75
2021/07/03 00:12:09;;;;;;;;;;;;;;;20.89;45.66;95855.69;1037081;28;1194;-76
2021/07/03 00:12:39;;;;;;;;;;;;;;;20.90;45.92;95849.34;1036799;28;1175;-76
2021/07/03 00:13:09;;;;;;;;;;;;;;;20.90;45.91;95853.81;1037206;28;1159;-76
2021/07/03 00:13:40;;;;;;;;;;;;;;;20.90;45.88;95859.09;1034938;28;1236;-76
2021/07/03 00:14:10;;;;;;;;;;;;;;;20.88;45.77;95856.72;1036519;28;987;-77
2021/07/03 00:14:40;;;;;;;;;;;;;;;20.88;45.96;95856.72;1034162;28;1135;-77
2021/07/03 00:15:12;;;;;;;;;;;;;;;20.88;46.02;95862.00;1036313;28;1222;-78
2021/07/03 00:15:42;;;;;;;;;;;;;;;20.88;46.03;95853.31;1040261;28;1370;-77
2021/07/03 00:16:13;;;;;;;;;;;;;;;20.87;45.95;95849.91;1038458;28;2062;-76
2021/07/03 00:16:43;;;;;;;;;;;;;;;20.87;46.20;95852.53;1039820;28;1150;-76
2021/07/03 00:17:13;;;;;;;;;;;;;;;20.88;45.87;95856.72;1040336;28;1062;-77
2021/07/03 00:17:43;;;;;;;;;;;;;;;20.87;46.08;95863.06;1040641;28;1194;-77
2021/07/03 00:18:14;;;;;;;;;;;;;;;20.87;45.94;95855.16;1035724;28;1679;-76
2021/07/03 00:18:44;;;;;;;;;;;;;;;20.87;46.14;95851.75;1035957;28;1211;-76
2021/07/03 00:19:14;;;;;;;;;;;;;;;20.87;45.97;95855.16;1036472;28;780;-76
2021/07/03 00:19:45;;;;;;;;;;;;;;;20.87;46.11;95849.09;1035480;28;1290;-77
2021/07/03 00:20:15;;;;;;;;;;;;;;;20.85;46.05;95849.38;1037532;28;1230;-75
2021/07/03 00:20:45;;;;;;;;;;;;;;;20.86;46.09;95847.50;1037560;28;1147;-73
2021/07/03 00:21:16;;;;;;;;;;;;;;;20.84;46.25;95850.44;1038113;28;2135;-75
2021/07/03 00:21:46;;;;;;;;;;;;;;;20.85;46.45;95857.28;1040503;28;1178;-75
2021/07/03 00:22:16;;;;;;;;;;;;;;;20.84;46.46;95852.28;1040850;28;994;-76
2021/07/03 00:22:46;;;;;;;;;;;;;;;20.84;46.12;95855.69;1040567;28;1969;-76
2021/07/03 00:23:16;;;;;;;;;;;;;;;20.84;46.02;95842.53;1036977;28;1147;-75
2021/07/03 00:23:47;;;;;;;;;;;;;;;20.85;45.98;95852.03;1040638;28;1103;-76
2021/07/03 00:24:17;;;;;;;;;;;;;;;20.85;46.24;95849.38;1040814;28;983;-76
2021/07/03 00:24:47;;;;;;;;;;;;;;;20.86;46.12;95853.56;1038352;28;1131;-75
2021/07/03 00:25:18;;;;;;;;;;;;;;;20.85;46.15;95846.75;1036424;28;903;-76
2021/07/03 00:25:48;;;;;;;;;;;;;;;20.85;46.31;95845.97;1037529;28;1151;-75
2021/07/03 00:26:18;;;;;;;;;;;;;;;20.86;46.24;95843.03;1038141;28;2061;-76
2021/07/03 00:26:52;;;;;;;;;;;;;;;20.87;46.28;95851.75;1036600;28;1783;-75
2021/07/03 00:27:22;;;;;;;;;;;;;;;20.87;46.17;95847.25;1037559;28;1856;-75
2021/07/03 00:27:52;;;;;;;;;;;;;;;20.86;46.31;95843.03;1037650;28;1853;-75
2021/07/03 00:28:22;;;;;;;;;;;;;;;20.86;46.16;95837.78;1038821;28;1135;-76
2021/07/03 00:28:53;;;;;;;;;;;;;;;20.85;46.42;95841.47;1040360;28;1092;-76
2021/07/03 00:29:23;;;;;;;;;;;;;;;20.86;46.26;95845.69;1036036;28;1236;-74
2021/07/03 00:29:53;;;;;;;;;;;;;;;20.87;46.32;95844.63;1032350;28;1376;-76
2021/07/03 00:30:24;;;;;;;;;;;;;;;20.87;46.14;95835.94;1028295;28;1262;-76
2021/07/03 00:30:54;;;;;;;;;;;;;;;20.87;46.11;95838.56;1029573;28;2175;-75
2021/07/03 00:31:24;;;;;;;;;;;;;;;20.88;46.45;95843.56;1039081;28;1008;-75
2021/07/03 00:31:55;;;;;;;;;;;;;;;20.86;46.37;95835.13;1036967;28;2081;-74
2021/07/03 00:32:25;;;;;;;;;;;;;;;20.87;46.13;95833.28;1036367;28;963;-75
2021/07/03 00:32:55;;;;;;;;;;;;;;;20.88;46.24;95842.75;1038496;28;1593;-75
2021/07/03 00:33:25;;;;;;;;;;;;;;;20.86;46.14;95837.78;1035152;28;2135;-76
2021/07/03 00:33:56;;;;;;;;;;;;;;;20.86;46.31;95829.88;1038730;28;1167;-77
2021/07/03 00:34:26;;;;;;;;;;;;;;;20.87;46.11;95834.09;1040215;28;1233;-76
2021/07/03 00:34:56;;;;;;;;;;;;;;;20.88;46.14;95837.50;1038473;28;1148;-76
2021/07/03 00:35:26;;;;;;;;;;;;;;;20.87;46.32;95839.34;1036731;28;1210;-76
2021/07/03 00:35:57;;;;;;;;;;;;;;;20.87;46.10;95828.81;1038917;28;1076;-76
2021/07/03 00:36:27;;;;;;;;;;;;;;;20.88;46.18;95830.38;1036827;28;508;-77
2021/07/03 00:36:57;;;;;;;;;;;;;;;20.87;46.30;95834.09;1037106;28;2109;-76
2021/07/03 00:37:27;;;;;;;;;;;;;;;20.88;46.10;95835.66;1037212;28;1900;-75
2021/07/03 00:37:58;;;;;;;;;;;;;;;20.88;46.09;95835.66;1039858;28;1139;-74
2021/07/03 00:38:28;;;;;;;;;;;;;;;20.88;46.16;95826.94;1039340;28;1337;-76
2021/07/03 00:38:59;;;;;;;;;;;;;;;20.88;46.13;95830.38;1039859;28;1144;-75
2021/07/03 00:39:29;;;;;;;;;;;;;;;20.87;46.10;95828.81;1037195;28;1324;-75
2021/07/03 00:39:59;;;;;;;;;;;;;;;20.87;46.10;95826.19;1035725;28;1259;-76
2021/07/03 00:40:29;;;;;;;;;;;;;;;20.87;46.16;95833.28;1037066;28;1195;-76
2021/07/03 00:41:00;;;;;;;;;;;;;;;20.86;46.23;95832.50;1036744;28;1119;-76
2021/07/03 00:41:30;;;;;;;;;;;;;;;20.85;46.12;95830.16;1032950;28;1435;-77
2021/07/03 00:42:00;;;;;;;;;;;;;;;20.85;46.13;95830.16;1036504;28;2268;-76
2021/07/03 00:42:31;;;;;;;;;;;;;;;20.84;46.41;95832.00;1037110;28;989;-77
2021/07/03 00:43:01;;;;;;;;;;;;;;;20.84;46.41;95829.34;1035912;28;2000;-77
2021/07/03 00:43:31;;;;;;;;;;;;;;;20.85;46.24;95825.66;1041087;28;784;-76
2021/07/03 00:44:02;;;;;;;;;;;;;;;20.85;46.25;95824.88;1036659;28;1133;-75
2021/07/03 00:44:32;;;;;;;;;;;;;;;20.85;46.24;95830.94;1037108;28;801;-76
2021/07/03 00:45:03;;;;;;;;;;;;;;;20.84;46.50;95825.91;1037053;28;1144;-76
2021/07/03 00:45:33;;;;;;;;;;;;;;;20.84;46.34;95828.56;1033097;28;1159;-75
2021/07/03 00:46:03;;;;;;;;;;;;;;;20.83;46.35;95827.00;1036608;28;1239;-76
2021/07/03 00:46:34;;;;;;;;;;;;;;;20.84;46.19;95825.91;1036975;28;796;-76
2021/07/03 00:47:05;;;;;;;;;;;;;;;20.85;46.39;95823.03;1030299;28;1957;-74
2021/07/03 00:47:35;;;;;;;;;;;;;;;20.84;46.32;95823.28;1031881;28;2100;-76
2021/07/03 00:48:05;;;;;;;;;;;;;;;20.84;46.46;95820.66;1037285;28;2218;-76
2021/07/03 00:48:36;;;;;;;;;;;;;;;20.86;46.32;95824.59;1032993;28;868;-76
2021/07/03 00:49:06;;;;;;;;;;;;;;;20.84;46.18;95824.09;1038202;28;1306;-76
2021/07/03 00:49:36;;;;;;;;;;;;;;;20.86;46.33;95826.44;1036530;28;1971;-76
2021/07/03 00:50:10;;;;;;;;;;;;;;;20.86;46.37;95826.44;1040492;28;1372;-77
2021/07/03 00:50:40;;;;;;;;;;;;;;;20.86;46.37;95829.88;1037234;28;1167;-76
2021/07/03 00:51:10;;;;;;;;;;;;;;;20.85;46.40;95820.41;1041447;28;959;-75
2021/07/03 00:51:41;;;;;;;;;;;;;;;20.85;46.16;95822.25;1038522;28;1214;-76
2021/07/03 00:52:11;;;;;;;;;;;;;;;20.85;46.24;95824.88;1042246;28;2121;-77
2021/07/03 00:52:42;;;;;;;;;;;;;;;20.83;46.36;95822.53;1037756;28;1025;-76
2021/07/03 00:53:14;;;;;;;;;;;;;;;20.82;46.34;95825.41;1040214;28;762;-76
2021/07/03 00:53:45;;;;;;;;;;;;;;;20.82;46.43;95826.19;1041093;28;1218;-77
2021/07/03 00:54:15;;;;;;;;;;;;;;;20.82;46.38;95828.84;1037868;28;2195;-78
2021/07/03 00:54:46;;;;;;;;;;;;;;;20.82;46.55;95826.19;1037336;28;1100;-76
2021/07/03 00:55:17;;;;;;;;;;;;;;;20.82;46.40;95826.19;1032831;28;1321;-77
2021/07/03 00:55:47;;;;;;;;;;;;;;;20.80;46.73;95823.06;1027927;28;2060;-76
2021/07/03 00:56:17;;;;;;;;;;;;;;;20.80;46.79;95827.53;1024287;28;1893;-76
2021/07/03 00:56:48;;;;;;;;;;;;;;;20.78;46.50;95827.81;1029135;28;1121;-76
2021/07/03 00:57:18;;;;;;;;;;;;;;;20.79;46.65;95829.38;1033243;28;2225;-77
2021/07/03 00:57:49;;;;;;;;;;;;;;;20.80;46.63;95830.97;1039764;28;1245;-76
2021/07/03 00:58:19;;;;;;;;;;;;;;;20.80;46.57;95825.69;1040997;28;1089;-76
2021/07/03 00:58:49;;;;;;;;;;;;;;;20.80;46.71;95828.31;1040185;28;1230;-76
2021/07/03 00:59:20;;;;;;;;;;;;;;;20.80;46.59;95828.31;1037344;28;715;-76
2021/07/03 00:59:50;;;;;;;;;;;;;;;20.79;46.52;95821.47;1038576;28;1206;-76
2021/07/03 01:00:21;;;;;;;;;;;;;;;20.79;46.73;95825.97;1039520;28;1174;-75
2021/07/03 01:00:51;;;;;;;;;;;;;;;20.78;46.73;95827.81;1038989;28;1338;-75
2021/07/03 01:01:21;;;;;;;;;;;;;;;20.79;46.94;95828.59;1036696;28;2428;-77
2021/07/03 01:01:52;;;;;;;;;;;;;;;20.79;46.99;95825.97;1036871;28;2082;-77
2021/07/03 01:02:22;;;;;;;;;;;;;;;20.79;46.71;95820.69;1037543;28;2465;-76
2021/07/03 01:02:52;;;;;;;;;;;;;;;20.78;46.67;95824.38;1040910;28;1903;-76
2021/07/03 01:03:23;;;;;;;;;;;;;;;20.78;46.83;95829.66;1040913;28;863;-76
2021/07/03 01:03:53;;;;;;;;;;;;;;;20.76;46.81;95822.03;1037542;28;1691;-77
2021/07/03 01:04:23;;;;;;;;;;;;;;;20.75;46.76;95820.44;1037201;28;895;-76
2021/07/03 01:04:54;;;;;;;;;;;;;;;20.74;46.74;95826.78;1038990;28;1116;-78
2021/07/03 01:05:24;;;;;;;;;;;;;;;20.74;46.85;95826.00;1038588;28;1167;-77
2021/07/03 01:05:54;;;;;;;;;;;;;;;20.73;46.89;95827.06;1039271;28;1175;-77
2021/07/03 01:06:25;;;;;;;;;;;;;;;20.72;46.96;95821.00;1041032;28;999;-76
2021/07/03 01:06:55;;;;;;;;;;;;;;;20.72;46.76;95828.09;1040768;28;1123;-77
2021/07/03 01:07:25;;;;;;;;;;;;;;;20.72;46.75;95831.53;1034760;28;2163;-75
2021/07/03 01:07:55;;;;;;;;;;;;;;;20.71;47.00;95829.94;1035209;28;1176;-75
2021/07/03 01:08:26;;;;;;;;;;;;;;;20.71;46.85;95829.94;1038873;28;1131;-76
2021/07/03 01:08:56;;;;;;;;;;;;;;;20.72;47.01;95836.00;1040427;28;1179;-76
2021/07/03 01:09:26;;;;;;;;;;;;;;;20.71;46.90;95824.69;1040942;28;805;-76
2021/07/03 01:09:56;;;;;;;;;;;;;;;20.71;46.70;95835.22;1038786;28;1367;-75
2021/07/03 01:10:27;;;;;;;;;;;;;;;20.71;46.90;95829.94;1037121;28;974;-76
2021/07/03 01:10:57;;;;;;;;;;;;;;;20.71;46.90;95835.22;1039236;28;1328;-77
2021/07/03 01:11:28;;;;;;;;;;;;;;;20.70;46.92;95832.84;1041048;28;652;-76
2021/07/03 01:11:58;;;;;;;;;;;;;;;20.70;46.90;95831.03;1040109;28;1242;-77
2021/07/03 01:12:28;;;;;;;;;;;;;;;20.70;47.05;95831.03;1039724;28;2142;-76
2021/07/03 01:12:59;;;;;;;;;;;;;;;20.70;46.97;95836.28;1041330;28;1138;-77
2021/07/03 01:13:29;;;;;;;;;;;;;;;20.70;47.25;95827.59;1038415;28;1642;-76
2021/07/03 01:14:01;;;;;;;;;;;;;;;20.68;47.14;95830.50;1039405;28;1147;-75
2021/07/03 01:14:31;;;;;;;;;;;;;;;20.69;46.99;95831.31;1037253;28;762;-77
2021/07/03 01:15:02;;;;;;;;;;;;;;;20.69;46.98;95826.03;1038012;28;1136;-76
2021/07/03 01:15:32;;;;;;;;;;;;;;;20.70;46.95;95832.84;1036896;28;1427;-76
2021/07/03 01:16:02;;;;;;;;;;;;;;;20.69;46.98;95837.34;1033334;28;1892;-76
2021/07/03 01:16:33;;;;;;;;;;;;;;;20.68;47.00;95827.88;1030041;28;1220;-77
2021/07/03 01:17:04;;;;;;;;;;;;;;;20.67;46.89;95828.91;1031206;28;2044;-75
2021/07/03 01:17:34;;;;;;;;;;;;;;;20.67;46.95;95836.81;1034566;28;2030;-75
2021/07/03 01:18:04;;;;;;;;;;;;;;;20.66;47.16;95831.81;1039857;28;1585;-76
2021/07/03 01:18:35;;;;;;;;;;;;;;;20.66;47.09;95837.09;1035873;28;2273;-75
2021/07/03 01:19:05;;;;;;;;;;;;;;;20.66;46.98;95834.47;1033481;28;2086;-77
2021/07/03 01:19:35;;;;;;;;;;;;;;;20.65;47.15;95833.66;1031961;28;2246;-76
2021/07/03 01:20:06;;;;;;;;;;;;;;;20.65;47.28;95838.16;1036537;28;1570;-76
2021/07/03 01:20:36;;;;;;;;;;;;;;;20.65;47.44;95843.44;1038502;28;2272;-75
2021/07/03 01:21:07;;;;;;;;;;;;;;;20.64;47.03;95837.38;1044602;28;1238;-76
2021/07/03 01:21:37;;;;;;;;;;;;;;;20.63;47.25;95830.53;1044905;28;744;-76
2021/07/03 01:22:08;;;;;;;;;;;;;;;20.65;47.24;95835.53;1040695;28;1334;-76
2021/07/03 01:22:39;;;;;;;;;;;;;;;20.65;46.96;95835.53;1038815;28;2316;-76
2021/07/03 01:23:10;;;;;;;;;;;;;;;20.64;47.21;95834.75;1033984;28;1979;-75
2021/07/03 01:23:40;;;;;;;;;;;;;;;20.65;47.12;95838.16;1032757;28;2305;-77
2021/07/03 01:24:10;;;;;;;;;;;;;;;20.64;46.98;95840.00;1036966;28;781;-77
2021/07/03 01:24:40;;;;;;;;;;;;;;;20.65;47.10;95833.66;1031686;28;2183;-77
2021/07/03 01:25:11;;;;;;;;;;;;;;;20.65;47.11;95843.44;1037005;28;780;-77
2021/07/03 01:25:42;;;;;;;;;;;;;;;20.65;47.13;95838.16;1034904;28;2261;-76
2021/07/03 01:26:12;;;;;;;;;;;;;;;20.65;47.13;95846.06;1044467;28;1948;-76
2021/07/03 01:26:42;;;;;;;;;;;;;;;20.64;47.04;95834.75;1034148;28;2063;-77
2021/07/03 01:27:14;;;;;;;;;;;;;;;20.64;47.04;95836.59;1032844;28;1370;-76
2021/07/03 01:27:55;;;;;;;;;;;;;;;20.65;46.96;95836.31;1026620;28;2314;-75
2021/07/03 01:28:25;;;;;;;;;;;;;;;20.64;47.02;95837.38;1027708;28;1011;-76
2021/07/03 01:28:55;;;;;;;;;;;;;;;20.65;47.02;95835.53;1035091;28;1148;-77
2021/07/03 01:29:26;;;;;;;;;;;;;;;20.64;46.95;95829.47;1038173;28;1146;-75
2021/07/03 01:29:56;;;;;;;;;;;;;;;20.64;46.97;95833.94;1043029;28;1324;-77
2021/07/03 01:30:26;;;;;;;;;;;;;;;20.63;47.06;95835.03;1039040;28;2003;-77
2021/07/03 01:30:57;;;;;;;;;;;;;;;20.64;47.36;95833.94;1037917;28;2442;-76
2021/07/03 01:31:27;;;;;;;;;;;;;;;20.64;47.10;95826.03;1037169;28;1254;-76
2021/07/03 01:31:57;;;;;;;;;;;;;;;20.64;47.22;95828.69;1039297;28;1152;-75
2021/07/03 01:32:27;;;;;;;;;;;;;;;20.64;46.98;95834.75;1039881;28;1860;-76
2021/07/03 01:32:58;;;;;;;;;;;;;;;20.64;47.13;95828.69;1040196;28;1857;-77
2021/07/03 01:33:28;;;;;;;;;;;;;;;20.63;47.05;95827.88;1040742;28;835;-76
2021/07/03 01:33:58;;;;;;;;;;;;;;;20.63;47.04;95833.16;1041237;28;1186;-77
2021/07/03 01:34:29;;;;;;;;;;;;;;;20.64;47.14;95826.03;1039304;28;1199;-75
2021/07/03 01:34:59;;;;;;;;;;;;;;;20.66;47.04;95831.81;1036736;28;1211;-76
2021/07/03 01:35:30;;;;;;;;;;;;;;;20.65;47.08;95825.78;1028723;28;1287;-76
2021/07/03 01:36:00;;;;;;;;;;;;;;;20.66;46.92;95830.00;1028390;28;1144;-77
2021/07/03 01:36:30;;;;;;;;;;;;;;;20.66;47.07;95830.00;1028900;28;864;-77
2021/07/03 01:37:01;;;;;;;;;;;;;;;20.67;47.04;95828.16;1035864;28;1206;-74
2021/07/03 01:37:31;;;;;;;;;;;;;;;20.66;47.04;95827.34;1039116;28;2039;-76
2021/07/03 01:38:01;;;;;;;;;;;;;;;20.65;47.13;95825.78;1036589;28;1379;-77
2021/07/03 01:38:32;;;;;;;;;;;;;;;20.65;47.01;95820.50;1035259;28;1941;-77
2021/07/03 01:39:05;;;;;;;;;;;;;;;20.65;46.95;95820.50;1039819;28;1230;-76
2021/07/03 01:39:35;;;;;;;;;;;;;;;20.65;47.18;95832.91;1036842;28;1177;-77
2021/07/03 01:40:06;;;;;;;;;;;;;;;20.64;47.14;95823.41;1040732;28;1210;-77
2021/07/03 01:40:37;;;;;;;;;;;;;;;20.64;47.06;95829.47;1041372;28;1022;-77
2021/07/03 01:41:07;;;;;;;;;;;;;;;20.64;47.16;95832.09;1037321;28;1159;-77
2021/07/03 01:41:37;;;;;;;;;;;;;;;20.64;47.07;95828.69;1037270;28;960;-77
2021/07/03 01:42:08;;;;;;;;;;;;;;;20.63;47.08;95827.88;1040909;28;1210;-76
2021/07/03 01:42:38;;;;;;;;;;;;;;;20.62;47.22;95831.59;1039602;28;1888;-76
2021/07/03 01:43:08;;;;;;;;;;;;;;;20.62;47.19;95836.84;1036585;28;1969;-76
2021/07/03 01:43:38;;;;;;;;;;;;;;;20.62;47.25;95836.84;1036910;28;975;-77
2021/07/03 01:44:09;;;;;;;;;;;;;;;20.62;47.07;95828.97;1035005;28;981;-77
2021/07/03 01:44:40;;;;;;;;;;;;;;;20.63;47.28;95833.16;1037003;28;1107;-75
2021/07/03 01:45:10;;;;;;;;;;;;;;;20.62;47.10;95828.97;1041113;28;1050;-76
2021/07/03 01:45:40;;;;;;;;;;;;;;;20.63;47.21;95832.38;1033908;28;2249;-77
2021/07/03 01:46:11;;;;;;;;;;;;;;;20.63;47.13;95829.75;1036639;28;808;-77
2021/07/03 01:46:41;;;;;;;;;;;;;;;20.61;47.35;95823.97;1037021;28;1163;-77
2021/07/03 01:47:11;;;;;;;;;;;;;;;20.59;47.23;95826.84;1039410;28;1806;-76
2021/07/03 01:47:43;;;;;;;;;;;;;;;20.61;47.12;95829.25;1038262;28;2217;-76
2021/07/03 01:48:13;;;;;;;;;;;;;;;20.59;47.17;95826.84;1040137;28;2252;-75
2021/07/03 01:48:43;;;;;;;;;;;;;;;20.59;47.15;95828.69;1037151;28;1498;-77
2021/07/03 01:49:14;;;;;;;;;;;;;;;20.59;47.34;95832.13;1037598;28;1246;-77
2021/07/03 01:49:45;;;;;;;;;;;;;;;20.59;47.31;95829.50;1037303;28;2089;-77
2021/07/03 01:50:15;;;;;;;;;;;;;;;20.59;47.21;95826.84;1041150;28;1121;-77
2021/07/03 01:50:46;;;;;;;;;;;;;;;20.59;47.14;95828.69;1041232;28;1214;-77
2021/07/03 01:51:16;;;;;;;;;;;;;;;20.59;47.14;95826.84;1041319;28;947;-76
2021/07/03 01:51:46;;;;;;;;;;;;;;;20.57;47.31;95826.34;1040136;28;1142;-75
2021/07/03 01:52:17;;;;;;;;;;;;;;;20.55;47.11;95825.81;1038925;28;1182;-77
2021/07/03 01:52:49;;;;;;;;;;;;;;;20.55;47.16;95825.81;1035162;28;2273;-76
2021/07/03 01:53:20;;;;;;;;;;;;;;;20.54;47.44;95824.25;1035819;28;2198;-76
2021/07/03 01:53:50;;;;;;;;;;;;;;;20.54;47.32;95832.16;1036894;28;1506;-76
2021/07/03 01:54:21;;;;;;;;;;;;;;;20.53;47.47;95822.66;1040683;28;808;-76
2021/07/03 01:54:51;;;;;;;;;;;;;;;20.53;47.29;95827.16;1036684;28;1454;-76
2021/07/03 01:55:21;;;;;;;;;;;;;;;20.53;47.57;95822.66;1036868;28;1118;-77
2021/07/03 01:55:52;;;;;;;;;;;;;;;20.51;47.40;95827.44;1036773;28;1143;-77
2021/07/03 01:56:22;;;;;;;;;;;;;;;20.52;47.41;95830.84;1036010;28;1941;-76
2021/07/03 01:56:59;;;;;;;;;;;;;;;20.52;47.43;95833.47;1038937;28;1151;-76
2021/07/03 01:57:29;;;;;;;;;;;;;;;20.52;47.56;95825.59;1032826;28;2305;-77
2021/07/03 01:57:59;;;;;;;;;;;;;;;20.50;47.45;95828.50;1036462;28;1037;-76
2021/07/03 01:58:30;;;;;;;;;;;;;;;20.50;47.64;95832.97;1036683;28;706;-76
2021/07/03 01:59:01;;;;;;;;;;;;;;;20.48;47.38;95825.34;1036570;28;2068;-76
2021/07/03 01:59:31;;;;;;;;;;;;;;;20.48;47.53;95830.63;1041202;28;1347;-75
2021/07/03 02:00:05;;;;;;;;;;;;;;;20.47;47.46;95829.03;1041318;28;1244;-77
2021/07/03 02:00:35;;;;;;;;;;;;;;;20.46;47.48;95827.47;1038347;28;1143;-76
2021/07/03 02:01:06;;;;;;;;;;;;;;;20.45;47.66;95825.88;1036453;28;1174;-75
2021/07/03 02:01:36;;;;;;;;;;;;;;;20.47;47.57;95834.28;1036040;28;2357;-77
2021/07/03 02:02:06;;;;;;;;;;;;;;;20.46;47.79;95831.94;1037777;28;1187;-76
2021/07/03 02:02:37;;;;;;;;;;;;;;;20.45;47.42;95823.25;1036045;28;1907;-76
2021/07/03 02:03:07;;;;;;;;;;;;;;;20.46;47.46;95826.66;1037943;28;1985;-77
2021/07/03 02:03:37;;;;;;;;;;;;;;;20.45;47.46;95825.06;1037213;28;2256;-75
2021/07/03 02:04:08;;;;;;;;;;;;;;;20.45;47.47;95825.88;1040599;28;1116;-77
2021/07/03 02:04:38;;;;;;;;;;;;;;;20.45;47.59;95832.97;1036355;28;1458;-76
2021/07/03 02:05:08;;;;;;;;;;;;;;;20.45;47.53;95830.34;1036415;28;1258;-78
2021/07/03 02:05:39;;;;;;;;;;;;;;;20.44;47.78;95823.53;1036817;28;1254;-76
2021/07/03 02:06:10;;;;;;;;;;;;;;;20.43;47.64;95827.19;1036782;28;880;-77
2021/07/03 02:06:40;;;;;;;;;;;;;;;20.43;47.78;95829.81;1031401;28;1180;-77
2021/07/03 02:07:10;;;;;;;;;;;;;;;20.43;47.86;95827.19;1032557;28;860;-77
2021/07/03 02:07:40;;;;;;;;;;;;;;;20.42;47.76;95830.91;1031566;28;2471;-76
2021/07/03 02:08:11;;;;;;;;;;;;;;;20.42;47.69;95826.44;1032288;28;2011;-77
2021/07/03 02:08:41;;;;;;;;;;;;;;;20.42;47.70;95831.69;1037449;28;1191;-76
2021/07/03 02:09:12;;;;;;;;;;;;;;;20.41;47.78;95822.22;1040596;28;1394;-77
2021/07/03 02:09:42;;;;;;;;;;;;;;;20.42;47.63;95826.44;1036408;28;1327;-76
2021/07/03 02:10:13;;;;;;;;;;;;;;;20.42;47.35;95826.44;1033911;28;1191;-78
2021/07/03 02:10:43;;;;;;;;;;;;;;;20.43;47.75;95827.19;1033383;28;1167;-76
2021/07/03 02:11:13;;;;;;;;;;;;;;;20.42;47.76;95817.75;1035819;28;1123;-76
2021/07/03 02:11:44;;;;;;;;;;;;;;;20.43;47.55;95821.94;1038660;28;1167;-76
2021/07/03 02:12:14;;;;;;;;;;;;;;;20.43;47.71;95821.94;1039614;28;2284;-76
2021/07/03 02:12:44;;;;;;;;;;;;;;;20.41;47.51;95819.56;1040121;28;1687;-77
2021/07/03 02:13:14;;;;;;;;;;;;;;;20.43;47.68;95822.72;1038718;28;2216;-77
2021/07/03 02:13:45;;;;;;;;;;;;;;;20.43;47.67;95820.09;1041045;28;1150;-77
2021/07/03 02:14:15;;;;;;;;;;;;;;;20.41;47.71;95814.31;1040784;28;1374;-76
2021/07/03 02:14:45;;;;;;;;;;;;;;;20.39;47.71;95816.44;1039087;28;1015;-75
2021/07/03 02:15:16;;;;;;;;;;;;;;;20.39;47.79;95816.44;1036460;28;2269;-75
2021/07/03 02:15:46;;;;;;;;;;;;;;;20.39;47.57;95815.63;1037572;28;1132;-76
2021/07/03 02:16:16;;;;;;;;;;;;;;;20.36;47.58;95814.31;1040724;28;808;-75
2021/07/03 02:16:46;;;;;;;;;;;;;;;20.37;47.74;95813.28;1038170;28;1202;-74
2021/07/03 02:17:17;;;;;;;;;;;;;;;20.36;47.76;95816.94;1032636;28;1247;-77
2021/07/03 02:17:47;;;;;;;;;;;;;;;20.36;47.61;95811.69;1029599;28;1175;-76
2021/07/03 02:18:17;;;;;;;;;;;;;;;20.37;47.76;95813.28;1030223;28;2277;-75
2021/07/03 02:18:48;;;;;;;;;;;;;;;20.36;47.60;95810.94;1032611;28;1100;-76
2021/07/03 02:19:19;;;;;;;;;;;;;;;20.35;47.68;95809.34;1036718;28;773;-77
2021/07/03 02:19:50;;;;;;;;;;;;;;;20.34;47.68;95816.44;1038394;28;1252;-76
2021/07/03 02:20:20;;;;;;;;;;;;;;;20.35;47.76;95810.13;1037141;28;781;-76
2021/07/03 02:20:50;;;;;;;;;;;;;;;20.35;47.76;95817.22;1038375;28;1156;-76
2021/07/03 02:21:21;;;;;;;;;;;;;;;20.35;47.47;95820.66;1039302;28;1214;-75
2021/07/03 02:21:51;;;;;;;;;;;;;;;20.34;47.81;95813.81;1034056;28;1204;-77
2021/07/03 02:22:22;;;;;;;;;;;;;;;20.34;47.71;95813.03;1032813;28;1352;-77
2021/07/03 02:22:52;;;;;;;;;;;;;;;20.34;47.70;95813.81;1030953;28;1919;-76
2021/07/03 02:23:22;;;;;;;;;;;;;;;20.32;47.84;95813.28;1031056;28;2536;-77
2021/07/03 02:23:53;;;;;;;;;;;;;;;20.32;47.77;95810.66;1034381;28;1203;-77
2021/07/03 02:24:23;;;;;;;;;;;;;;;20.33;47.75;95806.19;1036785;28;1334;-77
2021/07/03 02:24:53;;;;;;;;;;;;;;;20.32;47.71;95813.28;1040984;28;1234;-78
2021/07/03 02:25:24;;;;;;;;;;;;;;;20.31;47.78;95803.81;1041065;28;1149;-77
2021/07/03 02:25:54;;;;;;;;;;;;;;;20.32;47.91;95805.38;1038725;28;1301;-77
2021/07/03 02:26:24;;;;;;;;;;;;;;;20.33;47.79;95817.50;1036616;28;1139;-77
2021/07/03 02:26:55;;;;;;;;;;;;;;;20.32;47.71;95807.25;1034756;28;1816;-77
2021/07/03 02:27:25;;;;;;;;;;;;;;;20.31;47.77;95808.31;1039461;28;1927;-77
2021/07/03 02:27:55;;;;;;;;;;;;;;;20.30;47.90;95810.13;1039613;28;1991;-76
2021/07/03 02:28:25;;;;;;;;;;;;;;;20.31;47.90;95810.94;1037091;28;2161;-79
2021/07/03 02:28:56;;;;;;;;;;;;;;;20.30;47.88;95810.13;1036018;28;2021;-77
2021/07/03 02:29:26;;;;;;;;;;;;;;;20.28;47.95;95815.69;1035220;28;1238;-77
2021/07/03 02:29:56;;;;;;;;;;;;;;;20.27;47.82;95811.50;1034802;28;1198;-77
2021/07/03 02:30:27;;;;;;;;;;;;;;;20.26;47.86;95817.78;1041001;28;1234;-76
2021/07/03 02:30:57;;;;;;;;;;;;;;;20.26;48.17;95815.16;1037801;28;2299;-77
2021/07/03 02:31:27;;;;;;;;;;;;;;;20.26;47.80;95812.53;1041173;28;1058;-77
2021/07/03 02:31:57;;;;;;;;;;;;;;;20.26;47.92;95817.78;1040944;28;1107;-77
2021/07/03 02:32:28;;;;;;;;;;;;;;;20.26;47.69;95811.72;1040947;28;1183;-77
2021/07/03 02:33:01;;;;;;;;;;;;;;;20.25;47.96;95810.19;1036518;28;2021;-75
2021/07/03 02:33:31;;;;;;;;;;;;;;;20.25;47.94;95812.81;1040617;28;1042;-77
2021/07/03 02:34:01;;;;;;;;;;;;;;;20.25;47.84;95810.19;1040508;28;1174;-76
2021/07/03 02:34:32;;;;;;;;;;;;;;;20.25;47.74;95808.34;1037019;28;1658;-75
2021/07/03 02:35:02;;;;;;;;;;;;;;;20.24;47.89;95813.84;1040357;28;980;-78
2021/07/03 02:35:33;;;;;;;;;;;;;;;20.25;47.77;95815.44;1040868;28;807;-78
2021/07/03 02:36:03;;;;;;;;;;;;;;;20.25;47.71;95818.06;1035439;28;1326;-77
2021/07/03 02:36:34;;;;;;;;;;;;;;;20.23;47.79;95813.09;1032567;28;1171;-77
2021/07/03 02:37:04;;;;;;;;;;;;;;;20.23;47.71;95813.09;1040142;28;1160;-76
2021/07/03 02:37:34;;;;;;;;;;;;;;;20.22;47.96;95815.97;1032083;28;2051;-76
2021/07/03 02:38:05;;;;;;;;;;;;;;;20.22;47.69;95818.59;1035234;28;1997;-76
2021/07/03 02:38:36;;;;;;;;;;;;;;;20.21;47.74;95817.84;1035250;28;2216;-76
2021/07/03 02:39:06;;;;;;;;;;;;;;;20.21;47.98;95817.84;1036950;28;2121;-76
2021/07/03 02:39:36;;;;;;;;;;;;;;;20.20;47.48;95812.81;1035251;28;1989;-76
2021/07/03 02:40:08;;;;;;;;;;;;;;;20.20;47.85;95815.44;1036203;28;2009;-77
2021/07/03 02:40:38;;;;;;;;;;;;;;;20.21;47.72;95824.94;1036468;28;2197;-75
2021/07/03 02:41:08;;;;;;;;;;;;;;;20.18;47.79;95820.97;1035200;28;2154;-73